Latest Weather Observations for Roma

IDQ60801

Issued at 10:35 pm EST Wednesday 26 November 2014 (issued every 30 minutes, with the page automatically refreshed every 10 minutes)

About weather observations | Map of weather stations | Latest weather observations for QLD | Other Formats
Station Details ID: 043091 Name: ROMA AIRPORT Lat: -26.55 Lon: 148.77 Height: 307.38 m
Data from the previous 72 hours. | See also: Recent months at Roma
Date/Time
EST
Temp
°C
App
Temp
°C
Dew
Point
Rel
Hum
%
Delta-T
°C
Wind Press
QNH
hPa
Press
MSL
hPa
Rain
since 9 am
mm
Dir
 
Spd
km/h
Gust
km/h
Spd
kts
Gust
kts
26/10:30pm 23.2 23.7 16.5 66 4.1 N 9 11 5 6 1016.6 1015.0 0.0
26/10:00pm 23.7 23.9 16.7 65 4.3 N 11 13 6 7 1016.8 1015.2 0.0
26/09:30pm 24.3 23.8 15.8 59 5.2 NE 13 15 7 8 1016.7 1015.1 0.0
26/09:00pm 24.5 24.1 16.2 60 5.1 NE 13 17 7 9 1016.6 1015.0 0.0
26/08:30pm 25.0 23.8 17.0 61 5.0 NE 19 24 10 13 1016.5 1014.9 0.0
26/08:00pm 25.5 25.3 16.6 58 5.6 E 13 19 7 10 1016.3 1014.7 0.0
26/07:30pm 26.1 24.7 14.6 49 7.0 E 15 20 8 11 1016.1 1014.5 0.0
26/07:00pm 26.5 26.0 15.8 51 6.6 ESE 13 17 7 9 1015.8 1014.2 0.0
26/06:30pm 26.9 26.1 15.0 48 7.3 ESE 13 15 7 8 1015.4 1013.8 0.0
26/06:00pm 27.3 25.6 14.7 46 7.7 SE 17 20 9 11 1015.1 1013.5 0.0
26/05:30pm 27.4 26.7 16.4 51 6.9 S 15 20 8 11 1014.8 1013.2 0.0
26/05:00pm 28.1 27.9 15.7 46 7.7 ESE 11 17 6 9 1014.4 1012.8 0.0
26/04:30pm 27.8 28.4 15.8 48 7.5 NNE 7 9 4 5 1014.7 1013.1 0.0
26/04:00pm 28.4 26.8 15.0 44 8.2 SSE 17 22 9 12 1014.6 1013.0 0.0
26/03:30pm 28.4 26.0 14.3 42 8.6 SSE 20 26 11 14 1014.9 1013.3 0.0
26/03:00pm 28.9 26.5 13.9 39 9.1 ESE 19 26 10 14 1014.4 1012.8 0.0
26/02:30pm 29.5 27.1 13.7 38 9.6 SE 19 24 10 13 1014.3 1012.7 0.0
26/02:00pm 29.7 26.7 12.6 35 10.2 SSE 20 26 11 14 1014.2 1012.5 0.0
26/01:30pm 28.7 26.2 14.1 40 8.9 S 20 26 11 14 1014.5 1012.9 0.0
26/01:00pm 29.0 26.9 13.6 38 9.3 SSE 17 24 9 13 1014.9 1013.3 0.0
26/12:30pm 29.1 26.9 14.5 41 8.9 ESE 19 22 10 12 1014.8 1013.2 0.0
26/12:00pm 28.5 27.4 15.4 45 8.1 S 15 19 8 10 1015.6 1014.0 0.0
26/11:30am 27.6 26.9 18.3 57 6.0 SE 19 22 10 12 1015.8 1014.2 0.0
26/11:00am 27.7 27.6 18.7 58 5.8 SSE 17 22 9 12 1016.2 1014.6 0.0
26/10:30am 27.0 28.6 19.1 62 5.1 SSE 9 13 5 7 1016.4 1014.8 0.0
26/10:00am 26.4 27.6 18.3 61 5.2 SSE 9 11 5 6 1016.6 1015.0 0.0
26/09:30am 26.3 27.1 18.2 61 5.2 SSE 11 17 6 9 1016.6 1015.0 0.0
26/09:00am 26.0 26.5 18.4 63 4.9 S 13 19 7 10 1016.4 1014.8 0.0
26/08:30am 25.4 26.2 18.1 64 4.7 SSE 11 13 6 7 1016.5 1014.9 0.0
26/08:00am 25.1 25.7 17.6 63 4.7 ESE 11 15 6 8 1016.3 1014.7 0.0
26/07:30am 24.9 25.2 17.1 62 4.9 E 11 15 6 8 1016.1 1014.5 0.0
26/07:00am 24.0 25.1 17.0 65 4.4 ESE 7 11 4 6 1015.9 1014.3 0.0
26/06:30am 23.9 23.9 17.2 66 4.2 SSE 13 17 7 9 1015.7 1014.1 0.0
26/06:00am 24.0 24.6 16.8 64 4.5 SSE 9 13 5 7 1015.4 1013.8 0.0
26/05:30am 22.7 23.9 16.9 70 3.6 SSE 6 9 3 5 1015.1 1013.5 0.0
26/05:00am 22.7 22.9 16.7 69 3.7 SW 11 13 6 7 1014.7 1013.1 0.0
26/04:30am 23.1 23.8 17.1 69 3.7 S 9 11 5 6 1014.6 1013.0 0.0
26/04:00am 23.6 23.9 16.1 62 4.6 S 9 11 5 6 1014.3 1012.7 0.0
26/03:30am 23.8 24.4 16.8 65 4.4 SSE 9 11 5 6 1014.0 1012.3 0.0
26/03:00am 23.8 24.8 16.8 65 4.4 SE 7 9 4 5 1014.0 1012.3 0.0
26/02:30am 24.2 24.8 16.7 63 4.7 SE 9 11 5 6 1014.2 1012.5 0.0
26/02:00am 24.5 24.1 16.2 60 5.1 E 13 15 7 8 1014.3 1012.7 0.0
26/01:30am 24.3 24.8 15.5 58 5.4 ESE 7 9 4 5 1014.5 1012.9 0.0
26/01:00am 24.1 24.5 15.3 58 5.4 E 7 7 4 4 1014.7 1013.1 0.0
26/12:30am 24.1 24.2 15.6 59 5.2 SW 9 13 5 7 1014.8 1013.2 0.0
26/12:00am 24.5 23.4 15.4 57 5.6 WSW 15 20 8 11 1015.2 1013.6 0.0
 
Date/Time
EST
Temp
°C
App
Temp
°C
Dew
Point
Rel
Hum
%
Delta-T
°C
Wind Press
QNH
hPa
Press
MSL
hPa
Rain
since 9 am
mm
Dir
 
Spd
km/h
Gust
km/h
Spd
kts
Gust
kts
25/11:30pm 24.6 23.0 16.1 59 5.2 W 19 24 10 13 1015.7 1014.1 0.0
25/11:00pm 26.7 24.5 14.5 47 7.4 W 19 28 10 15 1016.0 1014.4 0.0
25/10:30pm 27.4 26.2 14.1 44 8.0 SSW 13 19 7 10 1015.4 1013.8 0.0
25/10:00pm 27.5 25.6 14.2 44 8.1 S 17 20 9 11 1015.4 1013.8 0.0
25/09:30pm 27.4 25.0 13.7 43 8.2 SSW 19 24 10 13 1015.4 1013.8 0.0
25/09:00pm 26.8 23.6 13.2 43 8.1 SSW 22 30 12 16 1015.3 1013.7 0.0
25/08:30pm 25.7 21.7 14.2 49 6.9 SSW 28 37 15 20 1015.4 1013.8 0.0
25/08:00pm 26.1 22.4 13.9 47 7.3 SW 26 35 14 19 1015.2 1013.6 0.0
25/07:30pm 27.7 25.3 12.5 39 9.0 S 17 20 9 11 1014.7 1013.1 0.0
25/07:00pm 26.8 25.5 14.9 48 7.3 S 15 19 8 10 1014.7 1013.1 0.0
25/06:30pm 27.9 24.8 13.4 40 8.7 SSW 22 30 12 16 1014.0 1012.3 0.0
25/06:00pm 28.3 22.5 12.6 38 9.3 SSW 35 52 19 28 1012.6 1011.0 0.0
25/05:30pm 30.0 23.9 12.9 35 10.3 SSW 37 50 20 27 1012.0 1010.4 0.0
25/05:00pm 30.6 23.4 13.8 35 10.2 S 44 59 24 32 1011.4 1009.8 0.0
25/04:50pm 30.8 24.4 14.4 36 10.1 SSW 41 59 22 32 1011.1 1009.4 0.0
25/04:30pm 31.3 23.8 14.0 35 10.6 SSW 46 61 25 33 1010.7 1009.0 0.0
25/04:02pm 34.3 29.6 13.2 28 12.9 SSW 30 56 16 30 1010.6 1008.9 0.0
25/04:00pm 34.3 30.0 13.2 28 12.9 SSW 28 39 15 21 1010.7 1009.0 0.0
25/03:56pm 33.9 28.5 12.3 27 13.0 SSW 32 39 17 21 1010.6 1008.9 0.0
25/03:30pm 36.5 34.6 9.2 19 15.9 S 9 13 5 7 1010.4 1008.7 0.0
25/03:00pm 37.5 35.8 10.0 19 16.3 E 9 17 5 9 1010.7 1009.0 0.0
25/02:30pm 37.3 36.8 10.6 20 15.9 NW 4 17 2 9 1011.0 1009.3 0.0
25/02:00pm 37.1 35.3 9.6 19 16.2 E 9 17 5 9 1011.5 1009.9 0.0
25/01:30pm 36.5 34.6 10.6 21 15.4 ENE 11 17 6 9 1011.8 1010.2 0.0
25/01:00pm 36.0 33.6 10.2 21 15.2 NE 13 20 7 11 1012.1 1010.5 0.0
25/12:30pm 35.9 33.9 11.5 23 14.7 NE 13 24 7 13 1012.4 1010.8 0.0
25/12:00pm 35.4 34.2 11.7 23 14.3 ENE 9 22 5 12 1013.1 1011.5 0.0
25/11:30am 34.6 31.7 12.9 27 13.2 N 20 28 11 15 1013.4 1011.8 0.0
25/11:00am 33.4 31.5 12.9 28 12.5 NNE 15 26 8 14 1014.0 1012.3 0.0
25/10:30am 33.5 31.8 13.5 29 12.3 N 15 26 8 14 1014.4 1012.8 0.0
25/10:00am 32.3 30.6 13.5 32 11.5 N 15 22 8 12 1014.7 1013.1 0.0
25/09:30am 31.7 29.1 13.9 34 10.9 N 20 28 11 15 1014.5 1012.9 0.0
25/09:00am 29.9 27.3 14.8 39 9.3 N 22 32 12 17 1014.5 1012.9 0.0
25/08:30am 29.2 27.1 15.3 42 8.6 N 20 30 11 16 1015.0 1013.4 0.0
25/08:00am 28.2 25.9 15.8 47 7.7 N 22 33 12 18 1015.1 1013.5 0.0
25/07:30am 27.0 24.3 15.7 50 7.0 N 24 32 13 17 1015.2 1013.6 0.0
25/07:00am 26.4 23.8 15.8 52 6.6 N 24 32 13 17 1014.9 1013.3 0.0
25/06:30am 25.1 23.3 15.4 55 5.9 NNE 19 24 10 13 1014.6 1013.0 0.0
25/06:00am 23.6 22.0 14.9 58 5.2 NNE 17 20 9 11 1014.4 1012.8 0.0
25/05:30am 22.5 21.1 14.4 60 4.8 NE 15 17 8 9 1014.1 1012.4 0.0
25/05:00am 23.2 21.5 14.7 58 5.1 NNE 17 24 9 13 1013.5 1011.9 0.0
25/04:30am 23.3 21.7 14.0 56 5.5 NNE 15 19 8 10 1013.2 1011.6 0.0
25/04:00am 23.3 21.4 12.9 52 6.1 NNE 15 19 8 10 1012.9 1011.3 0.0
25/03:30am 23.5 21.2 11.9 48 6.7 NNE 15 20 8 11 1012.8 1011.2 0.0
25/03:00am 23.9 21.8 11.2 44 7.2 NE 13 17 7 9 1012.8 1011.2 0.0
25/02:30am 25.1 22.2 10.9 41 8.1 NNE 17 20 9 11 1012.8 1011.2 0.0
25/02:00am 25.8 22.5 10.8 39 8.5 NNE 19 24 10 13 1012.8 1011.2 0.0
25/01:30am 25.3 23.1 10.7 40 8.3 NNE 13 19 7 10 1013.1 1011.5 0.0
25/01:00am 23.4 21.2 9.4 41 7.7 NNE 11 13 6 7 1013.2 1011.6 0.0
25/12:30am 24.5 22.7 9.3 38 8.4 NNW 9 11 5 6 1013.3 1011.7 0.0
25/12:00am 25.6 23.3 9.0 35 9.2 NW 11 15 6 8 1013.4 1011.8 0.0
 
Date/Time
EST
Temp
°C
App
Temp
°C
Dew
Point
Rel
Hum
%
Delta-T
°C
Wind Press
QNH
hPa
Press
MSL
hPa
Rain
since 9 am
mm
Dir
 
Spd
km/h
Gust
km/h
Spd
kts
Gust
kts
24/11:30pm 25.5 22.2 9.7 37 8.8 WNW 17 19 9 10 1013.2 1011.6 0.0
24/11:00pm 25.8 23.4 8.8 34 9.4 N 11 13 6 7 1012.9 1011.3 0.0
24/10:30pm 26.7 23.8 8.2 31 10.1 NNE 13 15 7 8 1012.6 1011.0 0.0
24/10:00pm 28.2 24.6 8.5 29 10.9 NNE 17 20 9 11 1012.3 1010.7 0.0
24/09:30pm 29.3 25.7 8.4 27 11.6 NNE 17 22 9 12 1012.5 1010.9 0.0
24/09:00pm 30.0 26.4 8.4 26 12.1 NNE 17 20 9 11 1012.4 1010.8 0.0
24/08:30pm 29.7 26.3 7.6 25 12.2 NE 15 19 8 10 1012.2 1010.6 0.0
24/08:00pm 29.3 26.1 6.7 24 12.2 NE 13 15 7 8 1011.9 1010.3 0.0
24/07:30pm 30.7 26.9 5.9 21 13.3 NE 15 17 8 9 1011.7 1010.1 0.0
24/07:00pm 31.4 28.0 5.8 20 13.8 NE 13 13 7 7 1011.6 1010.0 0.0
24/06:30pm 33.1 29.3 5.6 18 14.9 NE 15 22 8 12 1011.3 1009.6 0.0
24/06:00pm 34.0 29.4 3.7 15 16.0 NE 17 28 9 15 1010.8 1009.1 0.0
24/05:30pm 34.6 29.3 3.2 14 16.5 NE 20 28 11 15 1010.4 1008.7 0.0
24/05:00pm 35.5 30.8 2.9 13 17.2 NE 17 28 9 15 1010.3 1008.6 0.0
24/04:30pm 36.3 30.5 2.4 12 17.8 NNE 22 32 12 17 1010.4 1008.7 0.0
24/04:00pm 37.3 32.4 5.3 14 17.7 NE 20 32 11 17 1010.5 1008.8 0.0
24/03:30pm 35.6 30.7 5.0 15 16.6 ENE 20 28 11 15 1010.8 1009.1 0.0
24/03:00pm 35.6 30.5 3.0 13 17.2 ENE 19 24 10 13 1011.3 1009.6 0.0
24/02:30pm 35.9 30.8 4.2 14 17.1 NE 20 30 11 16 1011.8 1010.2 0.0
24/02:00pm 35.6 31.1 4.0 14 16.9 NNE 17 32 9 17 1012.4 1010.8 0.0
24/01:30pm 35.3 30.7 5.7 16 16.2 NE 19 33 10 18 1012.9 1011.3 0.0
24/01:00pm 35.4 31.2 5.8 16 16.3 ENE 17 30 9 16 1013.5 1011.9 0.0
24/12:30pm 34.9 29.7 5.4 16 16.1 NNE 22 35 12 19 1014.1 1012.4 0.0
24/12:00pm 34.9 31.2 9.3 21 14.8 NNE 19 30 10 16 1014.4 1012.8 0.0
24/11:30am 35.1 30.6 10.2 22 14.6 N 24 32 13 17 1014.9 1013.3 0.0
24/11:00am 33.5 29.6 10.8 25 13.4 NNE 22 33 12 18 1015.3 1013.7 0.0
24/10:30am 33.1 29.3 11.0 26 13.0 NE 22 37 12 20 1015.6 1014.0 0.0
24/10:00am 31.9 27.9 11.7 29 12.0 NNE 24 35 13 19 1016.1 1014.5 0.0
24/09:30am 31.3 27.3 11.7 30 11.6 NNE 24 39 13 21 1016.3 1014.7 0.0
24/09:00am 29.1 25.2 13.3 37 9.5 N 26 28 14 15 1016.7 1015.1 0.0
24/08:30am 29.7 26.8 13.9 38 9.6 NNE 22 32 12 17 1016.6 1015.0 0.0
24/08:00am 28.2 25.2 13.7 41 8.7 NNE 22 30 12 16 1016.8 1015.2 0.0
24/07:30am 26.8 22.9 14.5 46 7.5 NNE 28 33 15 18 1016.5 1014.9 0.0
24/07:00am 26.5 22.5 15.2 49 6.9 NNE 30 39 16 21 1016.3 1014.7 0.0
24/06:30am 25.6 21.6 15.3 53 6.3 NNE 30 43 16 23 1015.9 1014.3 0.0
24/06:00am 25.3 22.6 15.6 55 6.0 NNE 24 37 13 20 1015.6 1014.0 0.0
24/05:30am 24.8 22.3 16.2 58 5.3 NNE 24 30 13 16 1015.2 1013.6 0.0
24/05:00am 25.0 22.9 16.2 58 5.4 NNE 22 28 12 15 1014.7 1013.1 0.0
24/04:30am 25.5 23.7 16.1 56 5.8 NNE 20 30 11 16 1014.4 1012.8 0.0
24/04:00am 26.2 24.2 15.6 52 6.5 NNE 20 28 11 15 1014.2 1012.5 0.0
24/03:30am 26.8 24.4 14.5 46 7.5 NNE 20 24 11 13 1014.0 1012.3 0.0
24/03:00am 27.6 25.0 13.9 43 8.3 NNE 20 24 11 13 1013.7 1012.0 0.0
24/02:30am 27.9 26.0 14.2 43 8.3 NNE 17 20 9 11 1013.5 1011.9 0.0
24/02:00am 27.9 26.4 14.2 43 8.3 NNE 15 19 8 10 1013.4 1011.8 0.0
24/01:30am 27.4 26.1 13.7 43 8.2 N 13 15 7 8 1013.5 1011.9 0.0
24/01:00am 27.5 26.5 13.4 41 8.4 NNE 11 13 6 7 1013.5 1011.9 0.0
24/12:30am 27.5 26.5 13.4 41 8.4 NNE 11 13 6 7 1013.8 1012.1 0.0
24/12:00am 28.0 27.3 13.1 39 8.9 N 9 13 5 7 1014.1 1012.4 0.0
 
Date/Time
EST
Temp
°C
App
Temp
°C
Dew
Point
Rel
Hum
%
Delta-T
°C
Wind Press
QNH
hPa
Press
MSL
hPa
Rain
since 9 am
mm
Dir
 
Spd
km/h
Gust
km/h
Spd
kts
Gust
kts
23/11:30pm 28.5 27.7 12.8 38 9.3 N 9 11 5 6 1014.3 1012.7 0.0
23/11:00pm 29.6 27.9 12.5 35 10.2 N 13 17 7 9 1014.3 1012.7 0.0

Other Formats:

Comma delimited format used in spreadsheet applications
http://www.bom.gov.au/fwo/IDQ60801/IDQ60801.94515.axf

JavaScript Object Notation format (JSON) in row-major order
http://www.bom.gov.au/fwo/IDQ60801/IDQ60801.94515.json